sensor_id;sensor_type;location;lat;lon;timestamp;P1;durP1;ratioP1;P2;durP2;ratioP2
75061;SDS011;63641;46.526;24.612;2024-01-11T00:01:44;26.90;;;19.17;;
75061;SDS011;63641;46.526;24.612;2024-01-11T00:04:12;28.60;;;19.20;;
75061;SDS011;63641;46.526;24.612;2024-01-11T00:06:42;29.67;;;20.52;;
75061;SDS011;63641;46.526;24.612;2024-01-11T00:09:10;25.70;;;18.05;;
75061;SDS011;63641;46.526;24.612;2024-01-11T00:11:37;30.95;;;19.52;;
75061;SDS011;63641;46.526;24.612;2024-01-11T00:14:04;33.15;;;20.75;;
75061;SDS011;63641;46.526;24.612;2024-01-11T00:16:32;29.35;;;20.15;;
75061;SDS011;63641;46.526;24.612;2024-01-11T00:18:58;29.27;;;20.42;;
75061;SDS011;63641;46.526;24.612;2024-01-11T00:21:25;37.65;;;22.10;;
75061;SDS011;63641;46.526;24.612;2024-01-11T00:23:52;47.35;;;22.88;;
75061;SDS011;63641;46.526;24.612;2024-01-11T00:26:19;36.10;;;23.45;;
75061;SDS011;63641;46.526;24.612;2024-01-11T00:28:46;35.13;;;23.30;;
75061;SDS011;63641;46.526;24.612;2024-01-11T00:31:14;37.40;;;22.77;;
75061;SDS011;63641;46.526;24.612;2024-01-11T00:33:40;34.30;;;22.92;;
75061;SDS011;63641;46.526;24.612;2024-01-11T00:36:07;34.60;;;23.92;;
75061;SDS011;63641;46.526;24.612;2024-01-11T00:38:34;30.63;;;19.63;;
75061;SDS011;63641;46.526;24.612;2024-01-11T00:41:01;30.85;;;20.92;;
75061;SDS011;63641;46.526;24.612;2024-01-11T00:43:28;26.52;;;18.55;;
75061;SDS011;63641;46.526;24.612;2024-01-11T00:45:55;22.85;;;17.80;;
75061;SDS011;63641;46.526;24.612;2024-01-11T00:48:22;29.35;;;17.90;;
75061;SDS011;63641;46.526;24.612;2024-01-11T00:50:50;21.15;;;16.27;;
75061;SDS011;63641;46.526;24.612;2024-01-11T00:53:17;29.27;;;17.30;;
75061;SDS011;63641;46.526;24.612;2024-01-11T00:55:44;26.40;;;16.90;;
75061;SDS011;63641;46.526;24.612;2024-01-11T00:58:11;23.58;;;16.05;;
75061;SDS011;63641;46.526;24.612;2024-01-11T01:04:19;21.10;;;14.93;;
75061;SDS011;63641;46.526;24.612;2024-01-11T01:06:48;27.38;;;17.10;;
75061;SDS011;63641;46.526;24.612;2024-01-11T01:09:15;30.27;;;17.20;;
75061;SDS011;63641;46.526;24.612;2024-01-11T01:11:41;26.20;;;15.57;;
75061;SDS011;63641;46.526;24.612;2024-01-11T01:14:08;22.35;;;15.13;;
75061;SDS011;63641;46.526;24.612;2024-01-11T01:16:35;24.30;;;15.70;;
75061;SDS011;63641;46.526;24.612;2024-01-11T01:19:02;24.70;;;15.50;;
75061;SDS011;63641;46.526;24.612;2024-01-11T01:21:29;22.13;;;15.80;;
75061;SDS011;63641;46.526;24.612;2024-01-11T01:23:56;22.63;;;16.17;;
75061;SDS011;63641;46.526;24.612;2024-01-11T01:26:23;21.88;;;16.60;;
75061;SDS011;63641;46.526;24.612;2024-01-11T01:28:50;22.15;;;17.27;;
75061;SDS011;63641;46.526;24.612;2024-01-11T01:31:16;23.95;;;16.50;;
75061;SDS011;63641;46.526;24.612;2024-01-11T01:33:43;26.23;;;18.08;;
75061;SDS011;63641;46.526;24.612;2024-01-11T01:36:10;28.52;;;18.25;;
75061;SDS011;63641;46.526;24.612;2024-01-11T01:38:37;27.80;;;19.23;;
75061;SDS011;63641;46.526;24.612;2024-01-11T01:41:04;26.25;;;17.02;;
75061;SDS011;63641;46.526;24.612;2024-01-11T01:43:32;25.98;;;17.90;;
75061;SDS011;63641;46.526;24.612;2024-01-11T01:45:58;28.45;;;16.55;;
75061;SDS011;63641;46.526;24.612;2024-01-11T01:48:26;21.20;;;15.18;;
75061;SDS011;63641;46.526;24.612;2024-01-11T01:50:55;23.30;;;16.48;;
75061;SDS011;63641;46.526;24.612;2024-01-11T01:53:22;23.42;;;15.57;;
75061;SDS011;63641;46.526;24.612;2024-01-11T01:55:56;24.77;;;16.88;;
75061;SDS011;63641;46.526;24.612;2024-01-11T01:58:24;29.00;;;17.67;;
75061;SDS011;63641;46.526;24.612;2024-01-11T02:00:50;30.20;;;19.02;;
75061;SDS011;63641;46.526;24.612;2024-01-11T02:03:18;30.00;;;19.08;;
75061;SDS011;63641;46.526;24.612;2024-01-11T02:05:46;30.15;;;19.33;;
75061;SDS011;63641;46.526;24.612;2024-01-11T02:08:15;36.78;;;21.67;;
75061;SDS011;63641;46.526;24.612;2024-01-11T02:10:44;28.70;;;19.77;;
75061;SDS011;63641;46.526;24.612;2024-01-11T02:13:12;41.13;;;26.20;;
75061;SDS011;63641;46.526;24.612;2024-01-11T02:15:39;42.38;;;24.65;;
75061;SDS011;63641;46.526;24.612;2024-01-11T02:18:06;40.05;;;25.45;;
75061;SDS011;63641;46.526;24.612;2024-01-11T02:20:33;36.15;;;24.92;;
75061;SDS011;63641;46.526;24.612;2024-01-11T02:23:02;35.80;;;22.83;;
75061;SDS011;63641;46.526;24.612;2024-01-11T02:25:32;32.83;;;20.85;;
75061;SDS011;63641;46.526;24.612;2024-01-11T02:27:59;28.40;;;19.05;;
75061;SDS011;63641;46.526;24.612;2024-01-11T02:30:26;31.63;;;20.13;;
75061;SDS011;63641;46.526;24.612;2024-01-11T02:32:53;30.67;;;20.58;;
75061;SDS011;63641;46.526;24.612;2024-01-11T02:35:20;32.80;;;21.38;;
75061;SDS011;63641;46.526;24.612;2024-01-11T02:37:48;32.80;;;20.17;;
75061;SDS011;63641;46.526;24.612;2024-01-11T02:40:15;29.77;;;20.00;;
75061;SDS011;63641;46.526;24.612;2024-01-11T02:42:42;36.80;;;20.75;;
75061;SDS011;63641;46.526;24.612;2024-01-11T02:45:09;29.80;;;20.02;;
75061;SDS011;63641;46.526;24.612;2024-01-11T02:47:39;26.83;;;19.48;;
75061;SDS011;63641;46.526;24.612;2024-01-11T02:50:06;32.97;;;20.58;;
75061;SDS011;63641;46.526;24.612;2024-01-11T02:52:34;29.98;;;18.38;;
75061;SDS011;63641;46.526;24.612;2024-01-11T02:55:01;28.38;;;19.27;;
75061;SDS011;63641;46.526;24.612;2024-01-11T02:57:29;31.55;;;19.00;;
75061;SDS011;63641;46.526;24.612;2024-01-11T02:59:56;33.42;;;19.20;;
75061;SDS011;63641;46.526;24.612;2024-01-11T03:02:22;28.80;;;18.55;;
75061;SDS011;63641;46.526;24.612;2024-01-11T03:04:50;25.75;;;18.05;;
75061;SDS011;63641;46.526;24.612;2024-01-11T03:07:16;22.20;;;16.35;;
75061;SDS011;63641;46.526;24.612;2024-01-11T03:09:43;21.77;;;16.30;;
75061;SDS011;63641;46.526;24.612;2024-01-11T03:12:10;25.77;;;16.33;;
75061;SDS011;63641;46.526;24.612;2024-01-11T03:14:36;25.77;;;16.58;;
75061;SDS011;63641;46.526;24.612;2024-01-11T03:17:03;23.45;;;15.25;;
75061;SDS011;63641;46.526;24.612;2024-01-11T03:19:31;24.85;;;15.65;;
75061;SDS011;63641;46.526;24.612;2024-01-11T03:21:58;24.58;;;17.50;;
75061;SDS011;63641;46.526;24.612;2024-01-11T03:24:29;20.63;;;15.27;;
75061;SDS011;63641;46.526;24.612;2024-01-11T03:26:56;25.38;;;15.77;;
75061;SDS011;63641;46.526;24.612;2024-01-11T03:29:23;23.77;;;15.88;;
75061;SDS011;63641;46.526;24.612;2024-01-11T03:31:49;21.17;;;16.65;;
75061;SDS011;63641;46.526;24.612;2024-01-11T03:34:16;19.75;;;14.95;;
75061;SDS011;63641;46.526;24.612;2024-01-11T03:36:43;22.77;;;16.55;;
75061;SDS011;63641;46.526;24.612;2024-01-11T03:39:10;21.35;;;15.90;;
75061;SDS011;63641;46.526;24.612;2024-01-11T03:41:37;22.98;;;16.35;;
75061;SDS011;63641;46.526;24.612;2024-01-11T03:44:04;21.52;;;15.55;;
75061;SDS011;63641;46.526;24.612;2024-01-11T03:46:31;22.20;;;15.68;;
75061;SDS011;63641;46.526;24.612;2024-01-11T03:48:58;25.08;;;17.02;;
75061;SDS011;63641;46.526;24.612;2024-01-11T03:51:26;22.63;;;15.73;;
75061;SDS011;63641;46.526;24.612;2024-01-11T03:53:53;26.38;;;17.42;;
75061;SDS011;63641;46.526;24.612;2024-01-11T03:56:20;24.95;;;16.38;;
75061;SDS011;63641;46.526;24.612;2024-01-11T03:58:46;24.10;;;16.13;;
75061;SDS011;63641;46.526;24.612;2024-01-11T04:01:13;23.25;;;16.15;;
75061;SDS011;63641;46.526;24.612;2024-01-11T04:03:41;22.52;;;15.38;;
75061;SDS011;63641;46.526;24.612;2024-01-11T04:06:08;22.20;;;14.90;;
75061;SDS011;63641;46.526;24.612;2024-01-11T04:08:35;19.33;;;14.82;;
75061;SDS011;63641;46.526;24.612;2024-01-11T04:11:03;27.23;;;16.02;;
75061;SDS011;63641;46.526;24.612;2024-01-11T04:13:32;21.15;;;16.13;;
75061;SDS011;63641;46.526;24.612;2024-01-11T04:16:03;28.08;;;16.95;;
75061;SDS011;63641;46.526;24.612;2024-01-11T04:18:31;19.85;;;15.48;;
75061;SDS011;63641;46.526;24.612;2024-01-11T04:20:58;24.17;;;14.95;;
75061;SDS011;63641;46.526;24.612;2024-01-11T04:23:24;21.73;;;14.88;;
75061;SDS011;63641;46.526;24.612;2024-01-11T04:25:51;27.92;;;17.52;;
75061;SDS011;63641;46.526;24.612;2024-01-11T04:28:18;27.60;;;17.45;;
75061;SDS011;63641;46.526;24.612;2024-01-11T04:30:45;30.25;;;18.48;;
75061;SDS011;63641;46.526;24.612;2024-01-11T04:33:12;28.75;;;17.98;;
75061;SDS011;63641;46.526;24.612;2024-01-11T04:35:39;27.00;;;17.38;;
75061;SDS011;63641;46.526;24.612;2024-01-11T04:38:06;21.13;;;14.57;;
75061;SDS011;63641;46.526;24.612;2024-01-11T04:40:33;21.45;;;15.98;;
75061;SDS011;63641;46.526;24.612;2024-01-11T04:43:00;20.45;;;16.33;;
75061;SDS011;63641;46.526;24.612;2024-01-11T04:45:26;25.77;;;17.52;;
75061;SDS011;63641;46.526;24.612;2024-01-11T04:47:53;32.05;;;20.52;;
75061;SDS011;63641;46.526;24.612;2024-01-11T04:50:20;29.50;;;19.35;;
75061;SDS011;63641;46.526;24.612;2024-01-11T04:52:48;26.88;;;17.88;;
75061;SDS011;63641;46.526;24.612;2024-01-11T04:55:15;23.58;;;17.52;;
75061;SDS011;63641;46.526;24.612;2024-01-11T04:57:42;30.38;;;17.17;;
75061;SDS011;63641;46.526;24.612;2024-01-11T05:00:08;24.58;;;15.85;;
75061;SDS011;63641;46.526;24.612;2024-01-11T05:02:36;25.38;;;16.58;;
75061;SDS011;63641;46.526;24.612;2024-01-11T05:05:03;21.77;;;15.65;;
75061;SDS011;63641;46.526;24.612;2024-01-11T05:07:31;22.85;;;17.17;;
75061;SDS011;63641;46.526;24.612;2024-01-11T05:09:58;28.20;;;17.67;;
75061;SDS011;63641;46.526;24.612;2024-01-11T05:12:25;26.45;;;16.77;;
75061;SDS011;63641;46.526;24.612;2024-01-11T05:14:51;22.15;;;15.95;;
75061;SDS011;63641;46.526;24.612;2024-01-11T05:17:18;33.88;;;21.42;;
75061;SDS011;63641;46.526;24.612;2024-01-11T05:19:45;32.58;;;19.92;;
75061;SDS011;63641;46.526;24.612;2024-01-11T05:22:12;34.15;;;20.08;;
75061;SDS011;63641;46.526;24.612;2024-01-11T05:24:39;29.83;;;20.08;;
75061;SDS011;63641;46.526;24.612;2024-01-11T05:27:06;31.85;;;20.38;;
75061;SDS011;63641;46.526;24.612;2024-01-11T05:29:32;27.77;;;19.73;;
75061;SDS011;63641;46.526;24.612;2024-01-11T05:31:59;33.17;;;20.40;;
75061;SDS011;63641;46.526;24.612;2024-01-11T05:34:27;27.52;;;18.02;;
75061;SDS011;63641;46.526;24.612;2024-01-11T05:36:54;28.20;;;17.92;;
75061;SDS011;63641;46.526;24.612;2024-01-11T05:39:21;29.15;;;18.20;;
75061;SDS011;63641;46.526;24.612;2024-01-11T05:41:48;30.42;;;19.38;;
75061;SDS011;63641;46.526;24.612;2024-01-11T05:44:15;27.27;;;18.92;;
75061;SDS011;63641;46.526;24.612;2024-01-11T05:46:42;29.55;;;19.10;;
75061;SDS011;63641;46.526;24.612;2024-01-11T05:49:08;33.08;;;17.92;;
75061;SDS011;63641;46.526;24.612;2024-01-11T05:51:35;24.63;;;17.95;;
75061;SDS011;63641;46.526;24.612;2024-01-11T05:54:02;24.83;;;16.30;;
75061;SDS011;63641;46.526;24.612;2024-01-11T05:56:29;25.42;;;16.70;;
75061;SDS011;63641;46.526;24.612;2024-01-11T05:58:56;29.08;;;17.63;;
75061;SDS011;63641;46.526;24.612;2024-01-11T06:01:23;30.90;;;18.50;;
75061;SDS011;63641;46.526;24.612;2024-01-11T06:03:50;23.70;;;16.10;;
75061;SDS011;63641;46.526;24.612;2024-01-11T06:06:17;26.92;;;16.25;;
75061;SDS011;63641;46.526;24.612;2024-01-11T06:08:45;63.53;;;42.30;;
75061;SDS011;63641;46.526;24.612;2024-01-11T06:11:12;41.53;;;29.23;;
75061;SDS011;63641;46.526;24.612;2024-01-11T06:13:40;30.23;;;21.63;;
75061;SDS011;63641;46.526;24.612;2024-01-11T06:16:07;32.28;;;20.35;;
75061;SDS011;63641;46.526;24.612;2024-01-11T06:18:38;31.83;;;21.38;;
75061;SDS011;63641;46.526;24.612;2024-01-11T06:21:05;30.90;;;21.50;;
75061;SDS011;63641;46.526;24.612;2024-01-11T06:23:32;32.03;;;22.02;;
75061;SDS011;63641;46.526;24.612;2024-01-11T06:25:58;32.25;;;22.85;;
75061;SDS011;63641;46.526;24.612;2024-01-11T06:28:26;26.38;;;19.88;;
75061;SDS011;63641;46.526;24.612;2024-01-11T06:30:53;34.72;;;20.77;;
75061;SDS011;63641;46.526;24.612;2024-01-11T06:33:20;30.33;;;19.65;;
75061;SDS011;63641;46.526;24.612;2024-01-11T06:35:47;31.23;;;21.95;;
75061;SDS011;63641;46.526;24.612;2024-01-11T06:38:14;35.72;;;23.73;;
75061;SDS011;63641;46.526;24.612;2024-01-11T06:40:41;31.92;;;20.60;;
75061;SDS011;63641;46.526;24.612;2024-01-11T06:43:08;35.78;;;21.63;;
75061;SDS011;63641;46.526;24.612;2024-01-11T06:45:34;27.13;;;20.60;;
75061;SDS011;63641;46.526;24.612;2024-01-11T06:48:01;32.80;;;22.35;;
75061;SDS011;63641;46.526;24.612;2024-01-11T06:50:28;32.13;;;20.77;;
75061;SDS011;63641;46.526;24.612;2024-01-11T06:52:55;35.67;;;20.50;;
75061;SDS011;63641;46.526;24.612;2024-01-11T06:55:22;26.20;;;22.05;;
75061;SDS011;63641;46.526;24.612;2024-01-11T06:57:49;33.08;;;22.13;;
75061;SDS011;63641;46.526;24.612;2024-01-11T07:00:16;38.47;;;24.98;;
75061;SDS011;63641;46.526;24.612;2024-01-11T07:02:43;38.22;;;23.70;;
75061;SDS011;63641;46.526;24.612;2024-01-11T07:05:09;42.78;;;26.92;;
75061;SDS011;63641;46.526;24.612;2024-01-11T07:07:37;41.97;;;28.55;;
75061;SDS011;63641;46.526;24.612;2024-01-11T07:10:04;46.35;;;29.40;;
75061;SDS011;63641;46.526;24.612;2024-01-11T07:12:32;49.85;;;30.60;;
75061;SDS011;63641;46.526;24.612;2024-01-11T07:14:59;44.38;;;28.65;;
75061;SDS011;63641;46.526;24.612;2024-01-11T07:17:26;44.65;;;28.73;;
75061;SDS011;63641;46.526;24.612;2024-01-11T07:19:53;48.13;;;29.17;;
75061;SDS011;63641;46.526;24.612;2024-01-11T07:22:20;50.90;;;29.63;;
75061;SDS011;63641;46.526;24.612;2024-01-11T07:24:46;39.97;;;27.85;;
75061;SDS011;63641;46.526;24.612;2024-01-11T07:27:13;44.85;;;27.20;;
75061;SDS011;63641;46.526;24.612;2024-01-11T07:29:41;51.72;;;28.17;;
75061;SDS011;63641;46.526;24.612;2024-01-11T07:32:08;44.45;;;27.83;;
75061;SDS011;63641;46.526;24.612;2024-01-11T07:34:35;45.10;;;28.17;;
75061;SDS011;63641;46.526;24.612;2024-01-11T07:37:03;43.95;;;28.67;;
75061;SDS011;63641;46.526;24.612;2024-01-11T07:39:30;45.05;;;28.83;;
75061;SDS011;63641;46.526;24.612;2024-01-11T07:41:57;44.60;;;28.27;;
75061;SDS011;63641;46.526;24.612;2024-01-11T07:44:24;45.45;;;28.50;;
75061;SDS011;63641;46.526;24.612;2024-01-11T07:46:51;49.28;;;28.40;;
75061;SDS011;63641;46.526;24.612;2024-01-11T07:49:21;38.10;;;26.70;;
75061;SDS011;63641;46.526;24.612;2024-01-11T07:51:48;43.88;;;27.45;;
75061;SDS011;63641;46.526;24.612;2024-01-11T07:54:15;46.53;;;30.27;;
75061;SDS011;63641;46.526;24.612;2024-01-11T07:56:42;51.90;;;31.15;;
75061;SDS011;63641;46.526;24.612;2024-01-11T07:59:09;45.30;;;28.27;;
75061;SDS011;63641;46.526;24.612;2024-01-11T08:01:41;44.95;;;28.60;;
75061;SDS011;63641;46.526;24.612;2024-01-11T08:04:08;44.20;;;28.52;;
75061;SDS011;63641;46.526;24.612;2024-01-11T08:06:35;37.72;;;24.55;;
75061;SDS011;63641;46.526;24.612;2024-01-11T08:09:02;39.20;;;25.45;;
75061;SDS011;63641;46.526;24.612;2024-01-11T08:11:31;36.58;;;24.42;;
75061;SDS011;63641;46.526;24.612;2024-01-11T08:14:04;34.58;;;22.65;;
75061;SDS011;63641;46.526;24.612;2024-01-11T08:16:32;36.70;;;21.23;;
75061;SDS011;63641;46.526;24.612;2024-01-11T08:18:59;38.05;;;23.33;;
75061;SDS011;63641;46.526;24.612;2024-01-11T08:21:27;31.25;;;21.00;;
75061;SDS011;63641;46.526;24.612;2024-01-11T08:23:55;39.25;;;23.92;;
75061;SDS011;63641;46.526;24.612;2024-01-11T08:26:28;36.25;;;22.63;;
75061;SDS011;63641;46.526;24.612;2024-01-11T08:28:57;33.72;;;21.40;;
75061;SDS011;63641;46.526;24.612;2024-01-11T08:31:24;26.00;;;17.50;;
75061;SDS011;63641;46.526;24.612;2024-01-11T08:33:51;32.33;;;19.35;;
75061;SDS011;63641;46.526;24.612;2024-01-11T08:36:18;28.23;;;18.65;;
75061;SDS011;63641;46.526;24.612;2024-01-11T08:38:46;32.60;;;21.67;;
75061;SDS011;63641;46.526;24.612;2024-01-11T08:41:13;33.78;;;20.65;;
75061;SDS011;63641;46.526;24.612;2024-01-11T08:43:40;23.80;;;18.30;;
75061;SDS011;63641;46.526;24.612;2024-01-11T08:46:07;22.35;;;15.23;;
75061;SDS011;63641;46.526;24.612;2024-01-11T08:48:33;22.67;;;15.13;;
75061;SDS011;63641;46.526;24.612;2024-01-11T08:51:00;19.05;;;14.13;;
75061;SDS011;63641;46.526;24.612;2024-01-11T08:53:27;22.75;;;15.10;;
75061;SDS011;63641;46.526;24.612;2024-01-11T08:55:54;23.15;;;14.90;;
75061;SDS011;63641;46.526;24.612;2024-01-11T08:58:21;22.50;;;16.30;;
75061;SDS011;63641;46.526;24.612;2024-01-11T09:00:48;25.25;;;16.92;;
75061;SDS011;63641;46.526;24.612;2024-01-11T09:03:15;24.85;;;16.02;;
75061;SDS011;63641;46.526;24.612;2024-01-11T09:05:44;20.95;;;15.40;;
75061;SDS011;63641;46.526;24.612;2024-01-11T09:08:11;24.90;;;16.10;;
75061;SDS011;63641;46.526;24.612;2024-01-11T09:10:38;25.38;;;15.38;;
75061;SDS011;63641;46.526;24.612;2024-01-11T09:13:05;23.60;;;15.60;;
75061;SDS011;63641;46.526;24.612;2024-01-11T09:15:31;23.50;;;15.95;;
75061;SDS011;63641;46.526;24.612;2024-01-11T09:17:59;24.65;;;16.02;;
75061;SDS011;63641;46.526;24.612;2024-01-11T09:20:29;24.42;;;16.48;;
75061;SDS011;63641;46.526;24.612;2024-01-11T09:22:56;32.50;;;16.92;;
75061;SDS011;63641;46.526;24.612;2024-01-11T09:25:23;25.08;;;15.75;;
75061;SDS011;63641;46.526;24.612;2024-01-11T09:27:50;25.15;;;15.75;;
75061;SDS011;63641;46.526;24.612;2024-01-11T09:30:17;23.25;;;15.43;;
75061;SDS011;63641;46.526;24.612;2024-01-11T09:32:44;21.08;;;14.95;;
75061;SDS011;63641;46.526;24.612;2024-01-11T09:35:11;21.60;;;15.18;;
75061;SDS011;63641;46.526;24.612;2024-01-11T09:37:41;20.20;;;14.13;;
75061;SDS011;63641;46.526;24.612;2024-01-11T09:40:13;19.27;;;13.55;;
75061;SDS011;63641;46.526;24.612;2024-01-11T09:42:40;21.77;;;14.15;;
75061;SDS011;63641;46.526;24.612;2024-01-11T09:45:15;19.50;;;14.98;;
75061;SDS011;63641;46.526;24.612;2024-01-11T09:47:44;22.63;;;15.30;;
75061;SDS011;63641;46.526;24.612;2024-01-11T09:50:17;22.60;;;15.35;;
75061;SDS011;63641;46.526;24.612;2024-01-11T09:52:45;20.60;;;15.63;;
75061;SDS011;63641;46.526;24.612;2024-01-11T09:55:16;22.08;;;16.02;;
75061;SDS011;63641;46.526;24.612;2024-01-11T09:57:44;23.67;;;16.27;;
75061;SDS011;63641;46.526;24.612;2024-01-11T10:00:13;21.15;;;14.38;;
75061;SDS011;63641;46.526;24.612;2024-01-11T10:02:43;21.27;;;14.20;;
75061;SDS011;63641;46.526;24.612;2024-01-11T10:05:10;22.17;;;14.73;;
75061;SDS011;63641;46.526;24.612;2024-01-11T10:07:40;25.17;;;14.73;;
75061;SDS011;63641;46.526;24.612;2024-01-11T10:10:10;21.80;;;15.30;;
75061;SDS011;63641;46.526;24.612;2024-01-11T10:12:37;23.13;;;16.00;;
75061;SDS011;63641;46.526;24.612;2024-01-11T10:15:07;25.10;;;15.18;;
75061;SDS011;63641;46.526;24.612;2024-01-11T10:17:41;23.67;;;17.38;;
75061;SDS011;63641;46.526;24.612;2024-01-11T10:20:13;26.35;;;17.98;;
75061;SDS011;63641;46.526;24.612;2024-01-11T10:22:50;30.33;;;17.83;;
75061;SDS011;63641;46.526;24.612;2024-01-11T10:25:18;24.48;;;17.08;;
75061;SDS011;63641;46.526;24.612;2024-01-11T10:27:46;22.83;;;17.60;;
75061;SDS011;63641;46.526;24.612;2024-01-11T10:30:13;23.92;;;15.65;;
75061;SDS011;63641;46.526;24.612;2024-01-11T10:32:43;23.45;;;16.38;;
75061;SDS011;63641;46.526;24.612;2024-01-11T10:35:10;24.17;;;18.30;;
75061;SDS011;63641;46.526;24.612;2024-01-11T10:37:37;26.20;;;17.77;;
75061;SDS011;63641;46.526;24.612;2024-01-11T10:40:08;23.73;;;17.17;;
75061;SDS011;63641;46.526;24.612;2024-01-11T10:42:42;26.15;;;17.20;;
75061;SDS011;63641;46.526;24.612;2024-01-11T10:45:16;26.27;;;16.83;;
75061;SDS011;63641;46.526;24.612;2024-01-11T10:47:54;25.77;;;18.73;;
75061;SDS011;63641;46.526;24.612;2024-01-11T10:50:30;29.05;;;19.33;;
75061;SDS011;63641;46.526;24.612;2024-01-11T10:55:56;28.48;;;17.65;;
75061;SDS011;63641;46.526;24.612;2024-01-11T10:58:26;26.27;;;17.25;;
75061;SDS011;63641;46.526;24.612;2024-01-11T11:00:53;25.13;;;17.85;;
75061;SDS011;63641;46.526;24.612;2024-01-11T11:03:22;24.67;;;16.67;;
75061;SDS011;63641;46.526;24.612;2024-01-11T11:05:53;26.70;;;16.25;;
75061;SDS011;63641;46.526;24.612;2024-01-11T11:08:22;30.90;;;24.92;;
75061;SDS011;63641;46.526;24.612;2024-01-11T11:11:11;24.13;;;17.55;;
75061;SDS011;63641;46.526;24.612;2024-01-11T11:13:37;23.15;;;16.90;;
75061;SDS011;63641;46.526;24.612;2024-01-11T11:16:06;19.77;;;15.45;;
75061;SDS011;63641;46.526;24.612;2024-01-11T11:18:33;20.38;;;14.65;;
75061;SDS011;63641;46.526;24.612;2024-01-11T11:21:06;22.60;;;16.45;;
75061;SDS011;63641;46.526;24.612;2024-01-11T11:26:05;19.52;;;14.27;;
75061;SDS011;63641;46.526;24.612;2024-01-11T11:28:33;17.65;;;12.93;;
75061;SDS011;63641;46.526;24.612;2024-01-11T11:31:03;21.95;;;15.35;;
75061;SDS011;63641;46.526;24.612;2024-01-11T11:33:30;22.45;;;15.27;;
75061;SDS011;63641;46.526;24.612;2024-01-11T11:35:58;18.38;;;13.65;;
75061;SDS011;63641;46.526;24.612;2024-01-11T11:38:26;22.15;;;14.20;;
75061;SDS011;63641;46.526;24.612;2024-01-11T11:40:58;17.90;;;12.45;;
75061;SDS011;63641;46.526;24.612;2024-01-11T11:43:26;17.70;;;13.00;;
75061;SDS011;63641;46.526;24.612;2024-01-11T11:45:54;15.40;;;12.10;;
75061;SDS011;63641;46.526;24.612;2024-01-11T11:51:08;23.92;;;15.50;;
75061;SDS011;63641;46.526;24.612;2024-01-11T11:53:37;16.92;;;12.77;;
75061;SDS011;63641;46.526;24.612;2024-01-11T11:56:05;18.58;;;13.25;;
75061;SDS011;63641;46.526;24.612;2024-01-11T11:58:33;18.80;;;12.95;;
75061;SDS011;63641;46.526;24.612;2024-01-11T12:01:01;17.60;;;14.18;;
75061;SDS011;63641;46.526;24.612;2024-01-11T12:03:31;17.67;;;14.43;;
75061;SDS011;63641;46.526;24.612;2024-01-11T12:06:05;17.13;;;13.77;;
75061;SDS011;63641;46.526;24.612;2024-01-11T12:08:35;19.35;;;14.98;;
75061;SDS011;63641;46.526;24.612;2024-01-11T12:11:02;19.27;;;16.25;;
75061;SDS011;63641;46.526;24.612;2024-01-11T12:13:30;21.35;;;15.50;;
75061;SDS011;63641;46.526;24.612;2024-01-11T12:15:58;27.88;;;18.00;;
75061;SDS011;63641;46.526;24.612;2024-01-11T12:18:25;25.00;;;17.10;;
75061;SDS011;63641;46.526;24.612;2024-01-11T12:20:53;28.27;;;17.73;;
75061;SDS011;63641;46.526;24.612;2024-01-11T12:23:20;24.73;;;17.77;;
75061;SDS011;63641;46.526;24.612;2024-01-11T12:25:47;33.97;;;21.00;;
75061;SDS011;63641;46.526;24.612;2024-01-11T12:28:14;22.25;;;16.15;;
75061;SDS011;63641;46.526;24.612;2024-01-11T12:30:44;26.40;;;16.95;;
75061;SDS011;63641;46.526;24.612;2024-01-11T12:33:11;25.23;;;18.55;;
75061;SDS011;63641;46.526;24.612;2024-01-11T12:35:39;23.85;;;18.38;;
75061;SDS011;63641;46.526;24.612;2024-01-11T12:38:07;24.55;;;17.42;;
75061;SDS011;63641;46.526;24.612;2024-01-11T12:40:35;28.80;;;18.95;;
75061;SDS011;63641;46.526;24.612;2024-01-11T12:43:10;32.38;;;19.08;;
75061;SDS011;63641;46.526;24.612;2024-01-11T12:45:38;23.20;;;17.40;;
75061;SDS011;63641;46.526;24.612;2024-01-11T12:48:08;26.77;;;19.08;;
75061;SDS011;63641;46.526;24.612;2024-01-11T12:50:36;27.80;;;18.05;;
75061;SDS011;63641;46.526;24.612;2024-01-11T12:53:07;30.35;;;19.70;;
75061;SDS011;63641;46.526;24.612;2024-01-11T12:55:35;26.98;;;19.27;;
75061;SDS011;63641;46.526;24.612;2024-01-11T12:58:20;28.92;;;21.33;;
75061;SDS011;63641;46.526;24.612;2024-01-11T13:00:53;27.73;;;17.90;;
75061;SDS011;63641;46.526;24.612;2024-01-11T13:03:21;29.73;;;18.67;;
75061;SDS011;63641;46.526;24.612;2024-01-11T13:05:48;26.83;;;19.40;;
75061;SDS011;63641;46.526;24.612;2024-01-11T13:08:15;26.10;;;20.25;;
75061;SDS011;63641;46.526;24.612;2024-01-11T13:10:46;24.27;;;18.42;;
75061;SDS011;63641;46.526;24.612;2024-01-11T13:13:14;25.33;;;18.45;;
75061;SDS011;63641;46.526;24.612;2024-01-11T13:15:42;26.25;;;19.13;;
75061;SDS011;63641;46.526;24.612;2024-01-11T13:18:09;27.73;;;19.17;;
75061;SDS011;63641;46.526;24.612;2024-01-11T13:20:36;27.15;;;18.25;;
75061;SDS011;63641;46.526;24.612;2024-01-11T13:25:48;24.90;;;18.27;;
75061;SDS011;63641;46.526;24.612;2024-01-11T13:28:18;29.20;;;19.83;;
75061;SDS011;63641;46.526;24.612;2024-01-11T13:30:46;26.77;;;20.33;;
75061;SDS011;63641;46.526;24.612;2024-01-11T13:33:13;28.98;;;17.40;;
75061;SDS011;63641;46.526;24.612;2024-01-11T13:35:45;26.83;;;18.10;;
75061;SDS011;63641;46.526;24.612;2024-01-11T13:38:12;24.20;;;19.45;;
75061;SDS011;63641;46.526;24.612;2024-01-11T13:40:39;24.55;;;18.80;;
75061;SDS011;63641;46.526;24.612;2024-01-11T13:43:07;26.38;;;18.98;;
75061;SDS011;63641;46.526;24.612;2024-01-11T13:45:34;25.73;;;19.13;;
75061;SDS011;63641;46.526;24.612;2024-01-11T13:48:04;28.08;;;18.33;;
75061;SDS011;63641;46.526;24.612;2024-01-11T13:50:33;24.55;;;17.17;;
75061;SDS011;63641;46.526;24.612;2024-01-11T13:53:01;25.23;;;18.92;;
75061;SDS011;63641;46.526;24.612;2024-01-11T13:55:28;24.02;;;17.33;;
75061;SDS011;63641;46.526;24.612;2024-01-11T13:58:04;20.88;;;16.55;;
75061;SDS011;63641;46.526;24.612;2024-01-11T14:00:31;25.65;;;18.67;;
75061;SDS011;63641;46.526;24.612;2024-01-11T14:02:58;24.58;;;18.48;;
75061;SDS011;63641;46.526;24.612;2024-01-11T14:05:25;23.73;;;18.92;;
75061;SDS011;63641;46.526;24.612;2024-01-11T14:07:52;24.90;;;17.95;;
75061;SDS011;63641;46.526;24.612;2024-01-11T14:10:25;26.95;;;18.30;;
75061;SDS011;63641;46.526;24.612;2024-01-11T14:12:53;24.10;;;18.85;;
75061;SDS011;63641;46.526;24.612;2024-01-11T14:15:21;22.75;;;17.88;;
75061;SDS011;63641;46.526;24.612;2024-01-11T14:17:48;25.70;;;18.38;;
75061;SDS011;63641;46.526;24.612;2024-01-11T14:20:15;23.88;;;17.48;;
75061;SDS011;63641;46.526;24.612;2024-01-11T14:22:44;30.70;;;18.55;;
75061;SDS011;63641;46.526;24.612;2024-01-11T14:25:21;26.40;;;18.05;;
75061;SDS011;63641;46.526;24.612;2024-01-11T14:27:51;24.75;;;17.65;;